createdAt,value
2022-10-26T00:02:16.980Z,99471.84
2022-10-26T00:05:05.863Z,99462.34
2022-10-26T00:07:54.223Z,99473.34
2022-10-26T00:10:42.438Z,99465.22
2022-10-26T00:13:30.588Z,99437.66
2022-10-26T00:16:23.658Z,99450.50
2022-10-26T00:19:13.266Z,99460.25
2022-10-26T00:22:02.384Z,99457.13
2022-10-26T00:24:50.470Z,99455.00
2022-10-26T00:27:38.790Z,99454.00
2022-10-26T00:30:27.031Z,99450.63
2022-10-26T00:33:16.633Z,99446.16
2022-10-26T00:36:05.549Z,99454.81
2022-10-26T00:38:56.751Z,99462.38
2022-10-26T00:41:45.212Z,99465.00
2022-10-26T00:45:04.667Z,99465.25
2022-10-26T00:47:58.741Z,99482.31
2022-10-26T00:50:49.902Z,99483.63
2022-10-26T00:53:38.865Z,99485.72
2022-10-26T00:56:27.382Z,99489.16
2022-10-26T00:59:17.911Z,99477.88
2022-10-26T01:02:06.039Z,99474.50
2022-10-26T01:04:55.694Z,99480.25
2022-10-26T01:07:48.372Z,99458.47
2022-10-26T01:10:38.076Z,99472.34
2022-10-26T01:13:27.786Z,99472.84
2022-10-26T01:16:40.801Z,99467.59
2022-10-26T01:20:21.000Z,99464.72
2022-10-26T01:23:23.464Z,99474.41
2022-10-26T01:26:34.540Z,99491.41
2022-10-26T01:29:53.565Z,99472.84
2022-10-26T01:32:53.682Z,99463.41
2022-10-26T01:35:52.236Z,99448.78
2022-10-26T01:38:53.562Z,99443.78
2022-10-26T01:41:49.155Z,99447.22
2022-10-26T01:44:43.098Z,99427.56
2022-10-26T01:47:34.797Z,99427.81
2022-10-26T01:50:26.314Z,99427.31
2022-10-26T01:53:15.906Z,99423.13
2022-10-26T01:56:04.648Z,99428.38
2022-10-26T01:59:21.411Z,99429.44
2022-10-26T02:02:45.718Z,99418.94
2022-10-26T02:05:49.518Z,99422.63
2022-10-26T02:08:58.826Z,99420.00
2022-10-26T02:11:50.344Z,99427.09
2022-10-26T02:14:48.379Z,99423.69
2022-10-26T02:17:48.278Z,99422.66
2022-10-26T02:20:43.489Z,99422.69
2022-10-26T02:23:34.931Z,99438.41
2022-10-26T02:26:28.045Z,99420.34
2022-10-26T02:29:20.194Z,99440.50
2022-10-26T02:32:10.151Z,99420.88
2022-10-26T02:35:01.522Z,99418.03
2022-10-26T02:37:54.248Z,99407.53
2022-10-26T02:40:43.732Z,99409.38
2022-10-26T02:43:38.239Z,99407.50
2022-10-26T02:46:29.074Z,99402.00
2022-10-26T02:49:17.409Z,99391.03
2022-10-26T02:52:12.193Z,99393.66
2022-10-26T02:55:09.293Z,99391.78
2022-10-26T02:58:02.653Z,99388.41
2022-10-26T03:00:52.398Z,99392.34
2022-10-26T03:03:40.548Z,99380.28
2022-10-26T03:06:28.758Z,99393.13
2022-10-26T03:09:16.891Z,99391.81
2022-10-26T03:12:07.259Z,99391.56
2022-10-26T03:14:55.231Z,99379.78
2022-10-26T03:17:43.820Z,99378.97
2022-10-26T03:20:32.375Z,99386.59
2022-10-26T03:23:20.995Z,99388.16
2022-10-26T03:26:08.788Z,99404.41
2022-10-26T03:28:58.489Z,99438.47
2022-10-26T03:31:46.628Z,99459.16
2022-10-26T03:34:35.021Z,99448.63
2022-10-26T03:37:23.232Z,99416.94
2022-10-26T03:40:12.864Z,99437.34
2022-10-26T03:43:01.139Z,99439.72
2022-10-26T03:45:51.360Z,99449.94
2022-10-26T03:48:39.610Z,99458.34
2022-10-26T03:51:28.252Z,99450.72
2022-10-26T03:54:16.414Z,99456.28
2022-10-26T03:57:04.941Z,99443.19
2022-10-26T03:59:53.267Z,99457.63
2022-10-26T04:02:43.348Z,99439.28
2022-10-26T04:05:32.168Z,99437.97
2022-10-26T04:08:20.123Z,99436.91
2022-10-26T04:11:07.999Z,99423.31
2022-10-26T04:13:59.692Z,99416.22
2022-10-26T04:16:47.937Z,99412.28
2022-10-26T04:19:37.548Z,99394.94
2022-10-26T04:22:25.935Z,99400.75
2022-10-26T04:25:14.487Z,99402.31
2022-10-26T04:28:03.805Z,99397.06
2022-10-26T04:30:52.551Z,99393.38
2022-10-26T04:33:40.702Z,99405.22
2022-10-26T04:36:30.071Z,99401.53
2022-10-26T04:39:18.228Z,99404.97
2022-10-26T04:42:06.415Z,99408.63
2022-10-26T04:44:54.495Z,99401.03
2022-10-26T04:47:42.781Z,99402.88
2022-10-26T04:50:30.759Z,99406.78
2022-10-26T04:53:20.433Z,99409.09
2022-10-26T04:56:08.903Z,99396.25
2022-10-26T04:58:57.579Z,99421.19
2022-10-26T05:01:45.521Z,99416.47
2022-10-26T05:04:33.712Z,99417.78
2022-10-26T05:07:21.811Z,99419.09
2022-10-26T05:10:13.053Z,99418.06
2022-10-26T05:13:02.360Z,99408.09
2022-10-26T05:15:50.427Z,99420.44
2022-10-26T05:18:38.527Z,99431.69
2022-10-26T05:21:26.659Z,99432.22
2022-10-26T05:24:14.661Z,99420.16
2022-10-26T05:27:05.085Z,99430.66
2022-10-26T05:29:53.460Z,99426.19
2022-10-26T05:32:41.539Z,99420.94
2022-10-26T05:35:29.780Z,99435.91
2022-10-26T05:38:19.125Z,99428.81
2022-10-26T05:41:07.646Z,99413.06
2022-10-26T05:43:56.719Z,99435.59
2022-10-26T05:46:44.837Z,99438.50
2022-10-26T05:49:33.282Z,99447.94
2022-10-26T05:52:21.823Z,99439.53
2022-10-26T05:55:11.256Z,99440.34
2022-10-26T05:58:00.550Z,99434.81
2022-10-26T06:01:09.050Z,99438.47
2022-10-26T06:04:14.239Z,99450.03
2022-10-26T06:06:47.852Z,99472.03
2022-10-26T06:09:18.618Z,99466.03
2022-10-26T06:14:20.700Z,99496.47
2022-10-26T06:17:12.296Z,99497.25
2022-10-26T06:19:59.684Z,99500.66
2022-10-26T06:22:44.233Z,99495.94
2022-10-26T06:25:27.453Z,99503.00
2022-10-26T06:28:13.081Z,99515.06
2022-10-26T06:30:43.997Z,99518.75
2022-10-26T06:33:28.807Z,99527.66
2022-10-26T06:36:14.772Z,99521.38
2022-10-26T06:38:46.467Z,99512.19
2022-10-26T06:41:19.182Z,99528.69
2022-10-26T06:43:50.486Z,99518.72
2022-10-26T06:46:34.099Z,99522.38
2022-10-26T06:49:16.044Z,99519.78
2022-10-26T06:51:53.065Z,99528.94
2022-10-26T06:54:27.462Z,99523.91
2022-10-26T06:56:59.059Z,99527.88
2022-10-26T06:59:39.276Z,99533.63
2022-10-26T07:02:10.616Z,99534.19
2022-10-26T07:04:42.039Z,99534.44
2022-10-26T07:07:13.403Z,99530.81
2022-10-26T07:09:43.402Z,99543.97
2022-10-26T07:12:13.491Z,99529.28
2022-10-26T07:14:43.209Z,99543.75
2022-10-26T07:17:13.041Z,99557.66
2022-10-26T07:19:45.139Z,99551.38
2022-10-26T07:22:14.851Z,99563.19
2022-10-26T07:24:44.494Z,99565.28
2022-10-26T07:27:14.082Z,99552.16
2022-10-26T07:29:43.995Z,99582.09
2022-10-26T07:32:13.916Z,99567.13
2022-10-26T07:34:45.083Z,99573.44
2022-10-26T07:37:14.688Z,99593.91
2022-10-26T07:39:44.130Z,99581.31
2022-10-26T07:42:13.609Z,99598.13
2022-10-26T07:44:43.307Z,99597.09
2022-10-26T07:47:13.003Z,99599.72
2022-10-26T07:49:42.701Z,99589.22
2022-10-26T07:52:14.031Z,99592.38
2022-10-26T07:54:43.703Z,99609.19
2022-10-26T07:57:13.332Z,99594.25
2022-10-26T07:59:43.030Z,99599.75
2022-10-26T08:02:12.833Z,99593.47
2022-10-26T08:04:42.820Z,99598.22
2022-10-26T08:07:14.073Z,99593.78
2022-10-26T08:09:44.625Z,99601.38
2022-10-26T08:12:16.675Z,99589.84
2022-10-26T08:14:47.397Z,99586.69
2022-10-26T08:17:17.299Z,99603.50
2022-10-26T08:19:50.315Z,99593.03
2022-10-26T08:22:21.424Z,99594.88
2022-10-26T08:24:51.238Z,99594.38
2022-10-26T08:27:20.841Z,99595.69
2022-10-26T08:29:50.484Z,99604.66
2022-10-26T08:32:20.218Z,99605.72
2022-10-26T08:34:49.826Z,99603.63
2022-10-26T08:37:20.867Z,99594.44
2022-10-26T08:39:53.546Z,99604.41
2022-10-26T08:42:29.872Z,99606.00
2022-10-26T08:45:05.743Z,99605.75
2022-10-26T08:47:43.300Z,99601.53
2022-10-26T08:50:20.806Z,99609.41
2022-10-26T08:53:02.205Z,99618.06
2022-10-26T08:55:40.764Z,99614.91
2022-10-26T08:58:16.966Z,99611.00
2022-10-26T09:00:48.828Z,99620.97
2022-10-26T09:03:19.961Z,99615.22
2022-10-26T09:06:06.697Z,99623.63
2022-10-26T09:08:49.050Z,99625.75
2022-10-26T09:11:31.508Z,99632.25
2022-10-26T09:14:12.806Z,99611.66
2022-10-26T09:16:52.892Z,99614.44
2022-10-26T09:19:45.401Z,99621.72
2022-10-26T09:22:23.038Z,99633.06
2022-10-26T09:24:56.609Z,99632.53
2022-10-26T09:27:29.598Z,99637.03
2022-10-26T09:30:02.106Z,99643.41
2022-10-26T09:32:37.380Z,99641.81
2022-10-26T09:35:15.490Z,99640.69
2022-10-26T09:37:51.496Z,99644.34
2022-10-26T09:40:29.456Z,99654.53
2022-10-26T09:43:03.415Z,99641.88
2022-10-26T09:45:36.913Z,99655.81
2022-10-26T09:48:13.855Z,99647.31
2022-10-26T09:50:47.669Z,99658.63
2022-10-26T09:53:16.841Z,99659.56
2022-10-26T09:55:50.723Z,99659.44
2022-10-26T09:58:25.369Z,99649.06
2022-10-26T10:00:55.060Z,99660.22
2022-10-26T10:03:30.526Z,99664.31
2022-10-26T10:06:18.358Z,99662.91
2022-10-26T10:09:10.993Z,99671.22
2022-10-26T10:11:42.998Z,99677.66
2022-10-26T10:14:18.462Z,99666.88
2022-10-26T10:16:56.130Z,99675.34
2022-10-26T10:19:28.548Z,99680.94
2022-10-26T10:22:00.133Z,99680.69
2022-10-26T10:24:32.078Z,99672.50
2022-10-26T10:27:05.804Z,99682.91
2022-10-26T10:29:41.771Z,99683.91
2022-10-26T10:32:17.173Z,99696.66
2022-10-26T10:34:46.514Z,99689.28
2022-10-26T10:37:26.466Z,99685.66
2022-10-26T10:39:59.568Z,99699.50
2022-10-26T10:42:34.457Z,99696.00
2022-10-26T10:45:05.576Z,99705.63
2022-10-26T10:47:37.275Z,99717.31
2022-10-26T10:50:17.014Z,99717.66
2022-10-26T10:52:46.819Z,99723.31
2022-10-26T10:55:21.221Z,99735.00
2022-10-26T10:58:09.259Z,99739.56
2022-10-26T11:00:39.385Z,99736.47
2022-10-26T11:03:35.302Z,99734.22
2022-10-26T11:06:17.136Z,99747.47
2022-10-26T11:08:51.594Z,99750.63
2022-10-26T11:11:26.628Z,99744.78
2022-10-26T11:14:03.677Z,99736.78
2022-10-26T11:16:37.538Z,99738.84
2022-10-26T11:19:20.998Z,99743.75
2022-10-26T11:21:54.870Z,99743.44
2022-10-26T11:24:29.740Z,99749.09
2022-10-26T11:27:05.154Z,99733.88
2022-10-26T11:29:48.612Z,99740.91
2022-10-26T11:32:24.057Z,99739.13
2022-10-26T11:35:01.447Z,99741.81
2022-10-26T11:40:24.652Z,99744.19
2022-10-26T11:43:04.919Z,99744.28
2022-10-26T11:45:40.621Z,99755.31
2022-10-26T11:48:18.418Z,99754.34
2022-10-26T11:50:52.475Z,99756.03
2022-10-26T11:53:27.378Z,99760.00
2022-10-26T11:55:57.750Z,99758.75
2022-10-26T11:58:29.136Z,99756.88
2022-10-26T12:01:05.552Z,99764.88
2022-10-26T12:03:40.384Z,99761.66
2022-10-26T12:06:09.465Z,99764.97
2022-10-26T12:08:42.452Z,99768.28
2022-10-26T12:11:23.354Z,99761.47
2022-10-26T12:13:57.952Z,99762.16
2022-10-26T12:16:42.392Z,99759.38
2022-10-26T12:19:18.278Z,99777.19
2022-10-26T12:21:48.734Z,99770.91
2022-10-26T12:24:35.621Z,99765.63
2022-10-26T12:27:06.903Z,99774.38
2022-10-26T12:29:49.306Z,99782.78
2022-10-26T12:32:54.515Z,99773.38
2022-10-26T12:35:45.128Z,99778.94
2022-10-26T12:39:02.186Z,99776.94
2022-10-26T12:41:33.247Z,99770.59
2022-10-26T12:44:37.774Z,99777.22
2022-10-26T12:47:07.576Z,99785.66
2022-10-26T12:50:02.069Z,99788.03
2022-10-26T12:52:54.025Z,99788.59
2022-10-26T12:56:05.215Z,99777.78
2022-10-26T12:59:18.182Z,99790.28
2022-10-26T13:02:38.750Z,99793.72
2022-10-26T13:05:33.717Z,99780.72
2022-10-26T13:08:04.918Z,99784.66
2022-10-26T13:10:34.404Z,99784.88
2022-10-26T13:13:06.850Z,99790.94
2022-10-26T13:15:41.233Z,99800.72
2022-10-26T13:18:16.900Z,99804.47
2022-10-26T13:21:13.525Z,99796.59
2022-10-26T13:23:46.799Z,99795.00
2022-10-26T13:26:18.389Z,99791.88
2022-10-26T13:28:51.802Z,99802.75
2022-10-26T13:31:55.832Z,99786.16
2022-10-26T13:34:28.910Z,99796.13
2022-10-26T13:37:13.492Z,99798.31
2022-10-26T13:39:45.455Z,99795.22
2022-10-26T13:42:20.052Z,99800.78
2022-10-26T13:44:55.142Z,99800.56
2022-10-26T13:47:30.047Z,99803.28
2022-10-26T13:50:05.878Z,99809.13
2022-10-26T13:52:41.100Z,99804.41
2022-10-26T13:55:18.546Z,99809.16
2022-10-26T13:58:16.477Z,99810.03
2022-10-26T14:01:05.666Z,99812.16
2022-10-26T14:03:34.814Z,99807.69
2022-10-26T14:06:07.682Z,99812.97
2022-10-26T14:08:38.373Z,99817.69
2022-10-26T14:11:07.597Z,99814.78
2022-10-26T14:13:41.707Z,99809.75
2022-10-26T14:16:14.379Z,99817.19
2022-10-26T14:18:47.337Z,99817.47
2022-10-26T14:21:20.180Z,99819.59
2022-10-26T14:23:55.828Z,99819.06
2022-10-26T14:26:28.366Z,99818.25
2022-10-26T14:28:59.787Z,99823.06
2022-10-26T14:31:31.293Z,99819.09
2022-10-26T14:34:02.623Z,99828.09
2022-10-26T14:36:36.442Z,99819.91
2022-10-26T14:39:13.312Z,99826.75
2022-10-26T14:41:43.084Z,99834.19
2022-10-26T14:44:20.540Z,99836.31
2022-10-26T14:46:50.088Z,99841.41
2022-10-26T14:49:22.795Z,99836.66
2022-10-26T14:51:58.703Z,99838.84
2022-10-26T14:54:32.317Z,99843.34
2022-10-26T14:57:08.681Z,99843.34
2022-10-26T14:59:38.291Z,99851.50
2022-10-26T15:02:19.640Z,99850.72
2022-10-26T15:05:01.219Z,99848.09
2022-10-26T15:07:39.872Z,99851.81
2022-10-26T15:10:50.316Z,99855.53
2022-10-26T15:13:29.987Z,99852.09
2022-10-26T15:16:18.137Z,99855.28
2022-10-26T15:18:51.274Z,99860.81
2022-10-26T15:21:27.364Z,99855.56
2022-10-26T15:23:58.713Z,99865.09
2022-10-26T15:26:30.822Z,99864.09
2022-10-26T15:29:00.182Z,99875.66
2022-10-26T15:31:35.301Z,99875.44
2022-10-26T15:34:17.219Z,99883.88
2022-10-26T15:36:46.861Z,99892.34
2022-10-26T15:39:16.427Z,99890.78
2022-10-26T15:41:50.337Z,99900.03
2022-10-26T15:44:23.193Z,99895.06
2022-10-26T15:46:53.017Z,99892.94
2022-10-26T15:49:23.310Z,99891.63
2022-10-26T15:51:52.936Z,99902.94
2022-10-26T15:54:22.398Z,99895.28
2022-10-26T15:56:53.532Z,99906.66
2022-10-26T15:59:23.133Z,99899.06
2022-10-26T16:01:53.666Z,99917.28
2022-10-26T16:04:23.866Z,99917.28
2022-10-26T16:06:54.573Z,99905.94
2022-10-26T16:09:24.706Z,99922.88
2022-10-26T16:11:56.184Z,99924.75
2022-10-26T16:14:30.035Z,99914.47
2022-10-26T16:17:05.253Z,99922.66
2022-10-26T16:19:36.006Z,99924.56
2022-10-26T16:22:06.239Z,99924.84
2022-10-26T16:24:35.839Z,99936.19
2022-10-26T16:27:07.243Z,99930.69
2022-10-26T16:29:36.577Z,99937.84
2022-10-26T16:32:06.156Z,99944.16
2022-10-26T16:34:35.747Z,99945.25
2022-10-26T16:37:05.501Z,99950.28
2022-10-26T16:39:34.900Z,99957.97
2022-10-26T16:42:06.929Z,99956.44
2022-10-26T16:44:38.018Z,99962.75
2022-10-26T16:47:07.627Z,99964.41
2022-10-26T16:49:37.045Z,99968.66
2022-10-26T16:52:06.563Z,99972.09
2022-10-26T16:54:36.096Z,99969.72
2022-10-26T16:57:07.080Z,99968.69
2022-10-26T16:59:36.708Z,99970.00
2022-10-26T17:02:06.398Z,99975.59
2022-10-26T17:04:35.933Z,99976.63
2022-10-26T17:07:05.466Z,99990.63
2022-10-26T17:09:35.135Z,99984.03
2022-10-26T17:12:07.048Z,99990.63
2022-10-26T17:14:36.370Z,99999.31
2022-10-26T17:17:05.879Z,99999.63
2022-10-26T17:19:36.006Z,100005.66
2022-10-26T17:22:08.058Z,100010.94
2022-10-26T17:24:38.566Z,100011.75
2022-10-26T17:27:09.434Z,100016.78
2022-10-26T17:29:38.899Z,100012.56
2022-10-26T17:32:08.442Z,100025.25
2022-10-26T17:34:37.790Z,100016.78
2022-10-26T17:37:07.243Z,100025.78
2022-10-26T17:39:36.641Z,100033.16
2022-10-26T17:42:06.269Z,100045.56
2022-10-26T17:44:39.168Z,100030.53
2022-10-26T17:47:09.925Z,100054.00
2022-10-26T17:49:39.444Z,100057.44
2022-10-26T17:52:08.881Z,100065.31
2022-10-26T17:54:38.483Z,100080.38
2022-10-26T17:57:07.996Z,100083.78
2022-10-26T17:59:39.047Z,100085.88
2022-10-26T18:02:08.771Z,100087.72
2022-10-26T18:04:38.392Z,100087.44
2022-10-26T18:07:07.873Z,100089.00
2022-10-26T18:09:37.219Z,100090.59
2022-10-26T18:12:07.376Z,100096.13
2022-10-26T18:14:38.166Z,100091.88
2022-10-26T18:17:07.781Z,100099.25
2022-10-26T18:19:37.418Z,100104.81
2022-10-26T18:22:07.142Z,100104.78
2022-10-26T18:24:36.868Z,100112.16
2022-10-26T18:27:06.505Z,100104.22
2022-10-26T18:29:38.886Z,100103.97
2022-10-26T18:32:10.929Z,100112.41
2022-10-26T18:34:40.558Z,100112.13
2022-10-26T18:37:10.241Z,100125.59
2022-10-26T18:39:39.598Z,100115.56
2022-10-26T18:42:09.103Z,100117.13
2022-10-26T18:44:38.748Z,100127.94
2022-10-26T18:47:08.183Z,100125.28
2022-10-26T18:49:41.827Z,100125.28
2022-10-26T18:52:11.340Z,100121.03
2022-10-26T18:54:41.166Z,100143.41
2022-10-26T18:57:10.878Z,100140.53
2022-10-26T18:59:40.482Z,100137.84
2022-10-26T19:02:15.840Z,100139.97
2022-10-26T19:04:46.772Z,100146.28
2022-10-26T19:07:16.186Z,100151.00
2022-10-26T19:09:45.883Z,100153.09
2022-10-26T19:12:15.643Z,100142.31
2022-10-26T19:14:45.126Z,100150.47
2022-10-26T19:17:14.908Z,100153.00
2022-10-26T19:19:45.847Z,100157.72
2022-10-26T19:22:15.735Z,100144.25
2022-10-26T19:24:47.588Z,100157.66
2022-10-26T19:29:51.845Z,100152.66
2022-10-26T19:32:21.325Z,100161.84
2022-10-26T19:34:52.313Z,100160.78
2022-10-26T19:37:23.668Z,100170.78
2022-10-26T19:39:55.897Z,100171.81
2022-10-26T19:42:25.843Z,100173.94
2022-10-26T19:44:55.749Z,100179.69
2022-10-26T19:47:25.460Z,100182.28
2022-10-26T19:49:56.335Z,100173.38
2022-10-26T19:52:26.288Z,100180.16
2022-10-26T19:54:56.286Z,100182.50
2022-10-26T19:57:26.558Z,100178.56
2022-10-26T19:59:56.316Z,100181.94
2022-10-26T20:02:26.230Z,100192.97
2022-10-26T20:05:15.866Z,100190.59
2022-10-26T20:08:04.045Z,100197.41
2022-10-26T20:10:56.163Z,100201.81
2022-10-26T20:13:46.082Z,100206.16
2022-10-26T20:16:34.921Z,100211.91
2022-10-26T20:19:23.332Z,100210.28
2022-10-26T20:22:15.469Z,100204.75
2022-10-26T20:25:03.750Z,100197.03
2022-10-26T20:27:52.101Z,100208.59
2022-10-26T20:30:42.118Z,100214.34
2022-10-26T20:33:33.081Z,100213.84
2022-10-26T20:36:21.640Z,100216.47
2022-10-26T20:39:12.313Z,100208.00
2022-10-26T20:42:01.293Z,100209.56
2022-10-26T20:44:53.133Z,100200.03
2022-10-26T20:47:42.039Z,100211.84
2022-10-26T20:50:32.110Z,100207.28
2022-10-26T20:54:39.824Z,100211.16
2022-10-26T20:58:35.253Z,100213.09
2022-10-26T21:01:30.171Z,100215.19
2022-10-26T21:05:08.453Z,100218.84
2022-10-26T21:08:50.784Z,100222.91
2022-10-26T21:14:43.835Z,100231.53
2022-10-26T21:18:11.363Z,100225.66
2022-10-26T21:22:08.867Z,100228.72
2022-10-26T21:26:04.441Z,100237.88
2022-10-26T21:29:13.039Z,100229.94
2022-10-26T21:33:05.605Z,100234.88
2022-10-26T21:41:10.597Z,100251.59
2022-10-26T21:44:09.644Z,100256.84
2022-10-26T21:47:02.165Z,100261.53
2022-10-26T21:49:57.963Z,100248.91
2022-10-26T21:53:12.177Z,100255.09
2022-10-26T21:56:10.728Z,100255.09
2022-10-26T21:59:22.467Z,100252.19
2022-10-26T22:02:13.723Z,100257.66
2022-10-26T22:10:00.301Z,100252.28
2022-10-26T22:14:14.718Z,100254.03
2022-10-26T22:17:39.715Z,100253.94
2022-10-26T22:21:25.122Z,100257.03
2022-10-26T22:28:26.029Z,100260.13
2022-10-26T22:31:48.842Z,100261.63
2022-10-26T22:38:33.460Z,100263.63
2022-10-26T22:44:46.931Z,100271.41
2022-10-26T22:47:41.131Z,100267.69
2022-10-26T22:50:32.928Z,100267.69
2022-10-26T22:53:48.034Z,100258.94
2022-10-26T22:57:06.971Z,100258.63
2022-10-26T23:03:51.413Z,100264.63
2022-10-26T23:06:56.573Z,100265.19
2022-10-26T23:10:15.568Z,100258.63
2022-10-26T23:13:19.098Z,100265.91
2022-10-26T23:16:32.657Z,100261.13
2022-10-26T23:19:30.147Z,100258.91
2022-10-26T23:22:54.756Z,100268.81
2022-10-26T23:26:15.085Z,100266.66
2022-10-26T23:29:06.926Z,100259.38
2022-10-26T23:31:55.280Z,100267.00
2022-10-26T23:34:46.939Z,100265.16
2022-10-26T23:41:03.166Z,100272.13
2022-10-26T23:44:16.261Z,100273.63
2022-10-26T23:47:07.345Z,100271.94
2022-10-26T23:49:56.002Z,100263.31
2022-10-26T23:53:02.364Z,100282.19
2022-10-26T23:55:56.546Z,100287.91
2022-10-26T23:58:44.490Z,100283.94
